createdAt,value
2023-12-01T00:00:57.645Z,17.61
2023-12-01T00:03:25.697Z,17.48
2023-12-01T00:05:53.616Z,17.47
2023-12-01T00:08:21.537Z,17.48
2023-12-01T00:10:49.390Z,17.57
2023-12-01T00:13:17.344Z,17.50
2023-12-01T00:15:45.609Z,17.55
2023-12-01T00:18:15.199Z,17.49
2023-12-01T00:20:44.382Z,17.53
2023-12-01T00:23:12.523Z,17.47
2023-12-01T00:25:40.578Z,17.58
2023-12-01T00:28:08.645Z,17.48
2023-12-01T00:30:36.591Z,17.39
2023-12-01T00:33:04.890Z,17.48
2023-12-01T00:35:34.411Z,17.50
2023-12-01T00:38:02.451Z,17.54
2023-12-01T00:40:30.436Z,17.54
2023-12-01T00:42:58.344Z,17.51
2023-12-01T00:45:27.959Z,17.38
2023-12-01T00:47:55.994Z,17.25
2023-12-01T00:50:23.869Z,17.29
2023-12-01T00:52:53.396Z,17.28
2023-12-01T00:55:21.766Z,17.34
2023-12-01T00:57:55.010Z,17.25
2023-12-01T01:00:23.868Z,17.31
2023-12-01T01:02:52.665Z,17.22
2023-12-01T01:05:20.894Z,17.33
2023-12-01T01:07:48.980Z,17.14
2023-12-01T01:10:18.459Z,17.18
2023-12-01T01:12:46.469Z,17.21
2023-12-01T01:15:15.198Z,17.28
2023-12-01T01:17:43.171Z,17.20
2023-12-01T01:20:12.145Z,17.09
2023-12-01T01:22:40.102Z,17.12
2023-12-01T01:25:09.364Z,17.03
2023-12-01T01:27:38.847Z,16.98
2023-12-01T01:30:07.493Z,17.05
2023-12-01T01:32:35.469Z,17.11
2023-12-01T01:35:04.703Z,17.05
2023-12-01T01:37:32.857Z,16.98
2023-12-01T01:40:00.918Z,16.93
2023-12-01T01:42:29.364Z,17.01
2023-12-01T01:44:58.841Z,16.95
2023-12-01T01:47:26.932Z,16.94
2023-12-01T01:49:55.904Z,16.81
2023-12-01T01:52:23.797Z,16.87
2023-12-01T01:54:51.807Z,16.82
2023-12-01T01:57:19.836Z,16.82
2023-12-01T01:59:47.682Z,16.88
2023-12-01T02:02:17.136Z,16.94
2023-12-01T02:04:45.444Z,16.71
2023-12-01T02:07:26.820Z,16.80
2023-12-01T02:09:55.855Z,16.83
2023-12-01T02:12:23.882Z,16.68
2023-12-01T02:14:51.815Z,16.70
2023-12-01T02:17:21.537Z,16.72
2023-12-01T02:19:52.677Z,16.70
2023-12-01T02:22:22.118Z,16.77
2023-12-01T02:24:50.287Z,16.72
2023-12-01T02:27:18.205Z,16.68
2023-12-01T02:29:46.781Z,16.76
2023-12-01T02:32:14.732Z,16.49
2023-12-01T02:34:46.673Z,16.61
2023-12-01T02:37:14.694Z,16.64
2023-12-01T02:39:44.214Z,16.72
2023-12-01T02:42:12.090Z,16.66
2023-12-01T02:44:40.152Z,16.56
2023-12-01T02:47:09.959Z,16.47
2023-12-01T02:49:38.372Z,16.54
2023-12-01T02:52:06.365Z,16.46
2023-12-01T02:54:34.356Z,16.43
2023-12-01T02:57:04.261Z,16.38
2023-12-01T02:59:32.285Z,16.44
2023-12-01T03:02:00.369Z,16.38
2023-12-01T03:04:27.426Z,16.43
2023-12-01T03:06:55.512Z,16.38
2023-12-01T03:09:23.444Z,16.38
2023-12-01T03:11:51.445Z,16.31
2023-12-01T03:14:21.275Z,16.28
2023-12-01T03:16:49.305Z,16.24
2023-12-01T03:19:17.447Z,16.14
2023-12-01T03:21:45.433Z,16.21
2023-12-01T03:24:13.409Z,16.13
2023-12-01T03:26:41.514Z,16.05
2023-12-01T03:29:10.663Z,16.08
2023-12-01T03:31:40.001Z,16.00
2023-12-01T03:34:08.186Z,15.92
2023-12-01T03:36:36.154Z,15.94
2023-12-01T03:39:04.694Z,15.92
2023-12-01T03:41:32.725Z,15.93
2023-12-01T03:44:00.837Z,15.90
2023-12-01T03:46:28.820Z,15.93
2023-12-01T03:48:58.124Z,16.00
2023-12-01T03:51:26.282Z,15.99
2023-12-01T03:53:54.292Z,15.88
2023-12-01T03:56:22.682Z,15.95
2023-12-01T03:58:50.837Z,15.78
2023-12-01T04:01:18.977Z,15.80
2023-12-01T04:03:46.992Z,15.69
2023-12-01T04:06:16.760Z,15.76
2023-12-01T04:08:45.063Z,15.74
2023-12-01T04:11:13.483Z,15.67
2023-12-01T04:13:42.475Z,15.75
2023-12-01T04:16:10.842Z,15.63
2023-12-01T04:18:39.509Z,15.67
2023-12-01T04:21:09.698Z,15.56
2023-12-01T04:23:39.058Z,15.50
2023-12-01T04:26:07.629Z,15.53
2023-12-01T04:28:35.610Z,15.51
2023-12-01T04:31:11.084Z,15.56
2023-12-01T04:33:42.177Z,15.45
2023-12-01T04:36:13.038Z,15.45
2023-12-01T04:38:43.839Z,15.44
2023-12-01T04:41:12.460Z,15.28
2023-12-01T04:43:41.266Z,15.42
2023-12-01T04:46:10.292Z,15.47
2023-12-01T04:48:38.548Z,15.33
2023-12-01T04:51:06.716Z,15.34
2023-12-01T04:53:34.619Z,15.20
2023-12-01T04:56:04.008Z,15.28
2023-12-01T04:58:31.964Z,15.20
2023-12-01T05:01:00.107Z,15.20
2023-12-01T05:03:28.789Z,15.20
2023-12-01T05:05:56.750Z,15.27
2023-12-01T05:08:24.740Z,15.29
2023-12-01T05:10:53.374Z,15.26
2023-12-01T05:13:22.945Z,15.37
2023-12-01T05:15:51.000Z,15.35
2023-12-01T05:18:18.907Z,15.30
2023-12-01T05:20:49.121Z,15.34
2023-12-01T05:23:17.828Z,15.30
2023-12-01T05:25:47.986Z,15.31
2023-12-01T05:28:16.028Z,15.22
2023-12-01T05:30:47.281Z,15.25
2023-12-01T05:33:15.584Z,15.22
2023-12-01T05:35:44.982Z,15.25
2023-12-01T05:38:13.339Z,15.19
2023-12-01T05:40:41.419Z,15.29
2023-12-01T05:43:10.092Z,15.22
2023-12-01T05:45:38.712Z,15.30
2023-12-01T05:48:10.320Z,15.34
2023-12-01T05:50:39.649Z,15.33
2023-12-01T05:53:08.763Z,15.50
2023-12-01T05:55:38.535Z,15.30
2023-12-01T05:58:10.823Z,15.38
2023-12-01T06:00:39.496Z,15.48
2023-12-01T06:03:10.613Z,15.37
2023-12-01T06:05:39.571Z,15.35
2023-12-01T06:08:10.295Z,15.44
2023-12-01T06:10:38.892Z,15.40
2023-12-01T06:13:07.032Z,15.41
2023-12-01T06:15:35.170Z,15.48
2023-12-01T06:18:03.928Z,15.02
2023-12-01T06:20:36.006Z,14.27
2023-12-01T06:23:07.875Z,13.70
2023-12-01T06:25:40.044Z,13.79
2023-12-01T06:28:10.614Z,14.01
2023-12-01T06:30:39.400Z,14.04
2023-12-01T06:33:10.585Z,13.51
2023-12-01T06:35:40.270Z,14.04
2023-12-01T06:38:08.501Z,14.44
2023-12-01T06:40:36.558Z,14.09
2023-12-01T06:43:11.574Z,14.17
2023-12-01T06:45:41.656Z,14.07
2023-12-01T06:48:10.279Z,13.92
2023-12-01T06:50:38.313Z,14.09
2023-12-01T06:53:08.881Z,14.06
2023-12-01T06:55:38.076Z,13.88
2023-12-01T06:58:06.229Z,13.98
2023-12-01T07:00:38.005Z,13.78
2023-12-01T07:03:08.241Z,13.76
2023-12-01T07:05:37.042Z,13.80
2023-12-01T07:08:06.333Z,13.55
2023-12-01T07:10:36.525Z,13.68
2023-12-01T07:13:06.710Z,13.60
2023-12-01T07:15:34.868Z,13.60
2023-12-01T07:18:03.519Z,13.44
2023-12-01T07:20:32.764Z,13.54
2023-12-01T07:23:02.158Z,13.57
2023-12-01T07:25:31.891Z,13.47
2023-12-01T07:28:02.586Z,13.52
2023-12-01T07:30:31.516Z,13.43
2023-12-01T07:33:00.672Z,13.42
2023-12-01T07:35:28.902Z,13.59
2023-12-01T07:37:57.076Z,13.51
2023-12-01T07:40:26.552Z,13.62
2023-12-01T07:42:56.961Z,13.70
2023-12-01T07:45:27.640Z,13.65
2023-12-01T07:47:57.611Z,13.50
2023-12-01T07:50:28.187Z,13.60
2023-12-01T07:52:57.340Z,13.50
2023-12-01T07:55:26.098Z,13.42
2023-12-01T07:57:54.820Z,13.50
2023-12-01T08:00:23.308Z,13.49
2023-12-01T08:02:55.440Z,13.41
2023-12-01T08:05:25.532Z,13.32
2023-12-01T08:07:56.461Z,13.50
2023-12-01T08:10:27.078Z,13.41
2023-12-01T08:12:59.092Z,13.55
2023-12-01T08:15:29.191Z,13.61
2023-12-01T08:18:00.379Z,13.57
2023-12-01T08:20:31.137Z,13.66
2023-12-01T08:23:00.054Z,13.62
2023-12-01T08:25:29.022Z,13.64
2023-12-01T08:27:57.036Z,13.55
2023-12-01T08:30:27.424Z,13.64
2023-12-01T08:32:56.538Z,13.74
2023-12-01T08:35:26.671Z,13.63
2023-12-01T08:37:55.652Z,13.52
2023-12-01T08:40:24.736Z,13.64
2023-12-01T08:42:55.225Z,13.75
2023-12-01T08:45:23.446Z,13.72
2023-12-01T08:47:53.354Z,13.72
2023-12-01T08:50:21.975Z,13.68
2023-12-01T08:52:51.464Z,13.79
2023-12-01T08:55:19.459Z,13.74
2023-12-01T08:57:47.821Z,13.61
2023-12-01T09:00:23.072Z,13.63
2023-12-01T09:02:54.133Z,13.76
2023-12-01T09:05:22.694Z,13.83
2023-12-01T09:07:52.413Z,13.74
2023-12-01T09:10:24.325Z,13.89
2023-12-01T09:12:53.056Z,13.77
2023-12-01T09:15:21.231Z,13.71
2023-12-01T09:17:50.308Z,13.93
2023-12-01T09:20:18.638Z,14.12
2023-12-01T09:22:46.697Z,13.97
2023-12-01T09:25:16.356Z,13.81
2023-12-01T09:27:44.458Z,14.05
2023-12-01T09:30:18.308Z,14.19
2023-12-01T09:32:47.445Z,14.42
2023-12-01T09:35:17.043Z,14.56
2023-12-01T09:38:04.704Z,14.63
2023-12-01T09:40:34.464Z,14.74
2023-12-01T09:43:02.537Z,14.87
2023-12-01T09:45:30.736Z,14.90
2023-12-01T09:48:00.722Z,14.93
2023-12-01T09:50:29.383Z,14.93
2023-12-01T09:52:57.542Z,15.15
2023-12-01T09:55:25.910Z,15.27
2023-12-01T09:57:55.778Z,15.08
2023-12-01T10:00:24.018Z,15.01
2023-12-01T10:02:52.284Z,15.08
2023-12-01T10:05:22.123Z,15.16
2023-12-01T10:07:53.528Z,15.19
2023-12-01T10:10:23.681Z,15.38
2023-12-01T10:12:57.401Z,15.26
2023-12-01T10:15:26.902Z,15.26
2023-12-01T10:17:55.535Z,15.21
2023-12-01T10:20:24.264Z,15.29
2023-12-01T10:22:52.763Z,15.49
2023-12-01T10:25:21.312Z,15.51
2023-12-01T10:27:57.843Z,15.57
2023-12-01T10:30:26.539Z,15.40
2023-12-01T10:32:55.471Z,15.66
2023-12-01T10:35:23.604Z,15.53
2023-12-01T10:37:51.703Z,15.45
2023-12-01T10:40:20.740Z,15.75
2023-12-01T10:42:50.070Z,16.00
2023-12-01T10:45:20.715Z,15.52
2023-12-01T10:47:49.721Z,15.45
2023-12-01T10:50:18.397Z,15.94
2023-12-01T10:52:47.940Z,15.74
2023-12-01T10:55:16.014Z,15.83
2023-12-01T10:57:46.319Z,15.88
2023-12-01T11:00:31.365Z,15.55
2023-12-01T11:03:05.047Z,15.83
2023-12-01T11:05:34.406Z,15.79
2023-12-01T11:08:11.767Z,15.96
2023-12-01T11:10:44.336Z,16.12
2023-12-01T11:13:19.736Z,15.97
2023-12-01T11:15:50.983Z,15.99
2023-12-01T11:18:20.688Z,15.95
2023-12-01T11:20:49.929Z,16.08
2023-12-01T11:23:26.371Z,15.86
2023-12-01T11:25:56.971Z,16.30
2023-12-01T11:28:29.068Z,16.37
2023-12-01T11:31:06.997Z,16.47
2023-12-01T11:33:36.678Z,16.28
2023-12-01T11:36:23.481Z,16.22
2023-12-01T11:39:13.123Z,16.38
2023-12-01T11:41:41.848Z,16.36
2023-12-01T11:44:11.567Z,16.29
2023-12-01T11:46:40.445Z,16.08
2023-12-01T11:49:10.505Z,16.23
2023-12-01T11:51:38.914Z,16.11
2023-12-01T11:54:07.303Z,16.11
2023-12-01T11:56:35.391Z,16.07
2023-12-01T11:59:04.248Z,16.00
2023-12-01T12:01:33.483Z,15.98
2023-12-01T12:04:01.665Z,16.06
2023-12-01T12:06:33.360Z,16.24
2023-12-01T12:09:02.967Z,16.29
2023-12-01T12:11:31.223Z,16.29
2023-12-01T12:14:00.456Z,16.38
2023-12-01T12:16:28.903Z,16.02
2023-12-01T12:18:58.962Z,15.84
2023-12-01T12:21:27.726Z,15.87
2023-12-01T12:23:57.481Z,15.93
2023-12-01T12:26:27.211Z,15.94
2023-12-01T12:28:57.677Z,15.97
2023-12-01T12:31:27.721Z,15.67
2023-12-01T12:33:57.880Z,15.99
2023-12-01T12:36:28.016Z,15.95
2023-12-01T12:38:59.575Z,15.75
2023-12-01T12:41:28.555Z,15.78
2023-12-01T12:43:59.269Z,15.99
2023-12-01T12:46:28.111Z,16.03
2023-12-01T12:48:57.728Z,15.72
2023-12-01T12:51:26.764Z,15.66
2023-12-01T12:53:56.160Z,15.59
2023-12-01T12:56:25.963Z,15.54
2023-12-01T12:58:55.151Z,15.42
2023-12-01T13:01:24.239Z,15.25
2023-12-01T13:03:53.798Z,15.04
2023-12-01T13:06:22.659Z,14.94
2023-12-01T13:08:51.062Z,14.82
2023-12-01T13:11:19.445Z,15.07
2023-12-01T13:13:48.996Z,14.70
2023-12-01T13:16:18.232Z,14.99
2023-12-01T13:18:48.119Z,14.70
2023-12-01T13:21:17.423Z,14.98
2023-12-01T13:23:45.499Z,14.56
2023-12-01T13:26:14.017Z,14.66
2023-12-01T13:28:41.994Z,14.66
2023-12-01T13:31:11.599Z,14.67
2023-12-01T13:33:39.954Z,14.66
2023-12-01T13:36:11.104Z,14.90
2023-12-01T13:38:39.780Z,14.86
2023-12-01T13:41:09.120Z,14.86
2023-12-01T13:43:37.134Z,14.73
2023-12-01T13:46:05.460Z,14.93
2023-12-01T13:48:34.996Z,15.08
2023-12-01T13:51:03.113Z,14.75
2023-12-01T13:53:31.182Z,14.90
2023-12-01T13:56:05.883Z,15.00
2023-12-01T13:58:46.657Z,14.74
2023-12-01T14:01:17.757Z,14.92
2023-12-01T14:03:47.482Z,14.97
2023-12-01T14:06:15.891Z,14.61
2023-12-01T14:08:44.215Z,14.91
2023-12-01T14:11:13.438Z,14.85
2023-12-01T14:13:42.395Z,15.26
2023-12-01T14:16:11.143Z,14.99
2023-12-01T14:18:39.331Z,15.15
2023-12-01T14:21:09.169Z,14.99
2023-12-01T14:23:37.230Z,15.34
2023-12-01T14:26:05.714Z,15.32
2023-12-01T14:28:34.956Z,15.08
2023-12-01T14:31:04.579Z,15.22
2023-12-01T14:33:32.817Z,15.30
2023-12-01T14:36:01.337Z,15.11
2023-12-01T14:38:30.719Z,15.06
2023-12-01T14:40:58.719Z,15.20
2023-12-01T14:43:26.696Z,15.27
2023-12-01T14:45:54.823Z,15.24
2023-12-01T14:48:22.992Z,15.28
2023-12-01T14:50:51.812Z,15.13
2023-12-01T14:53:19.886Z,15.35
2023-12-01T14:55:49.483Z,15.18
2023-12-01T14:58:17.552Z,15.08
2023-12-01T15:00:45.621Z,15.11
2023-12-01T15:03:13.850Z,15.36
2023-12-01T15:05:42.091Z,15.33
2023-12-01T15:08:10.261Z,15.02
2023-12-01T15:10:37.212Z,15.24
2023-12-01T15:13:06.781Z,15.23
2023-12-01T15:15:34.970Z,15.16
2023-12-01T15:18:03.153Z,15.56
2023-12-01T15:20:31.169Z,15.36
2023-12-01T15:22:59.134Z,15.36
2023-12-01T15:25:27.442Z,15.06
2023-12-01T15:27:56.055Z,15.45
2023-12-01T15:30:25.640Z,15.54
2023-12-01T15:32:54.244Z,15.64
2023-12-01T15:35:22.403Z,15.42
2023-12-01T15:37:50.473Z,15.71
2023-12-01T15:40:18.672Z,15.46
2023-12-01T15:42:46.715Z,15.62
2023-12-01T15:45:14.876Z,15.71
2023-12-01T15:47:45.065Z,15.67
2023-12-01T15:50:13.500Z,15.85
2023-12-01T15:52:41.491Z,15.94
2023-12-01T15:55:09.813Z,16.09
2023-12-01T15:57:37.818Z,15.79
2023-12-01T16:00:07.240Z,15.70
2023-12-01T16:02:41.441Z,15.75
2023-12-01T16:05:11.276Z,15.63
2023-12-01T16:07:40.354Z,16.06
2023-12-01T16:10:08.905Z,16.00
2023-12-01T16:12:37.579Z,16.13
2023-12-01T16:15:13.059Z,16.16
2023-12-01T16:17:45.776Z,16.17
2023-12-01T16:20:15.589Z,16.13
2023-12-01T16:22:43.617Z,16.16
2023-12-01T16:25:11.905Z,16.04
2023-12-01T16:27:40.023Z,16.17
2023-12-01T16:30:08.921Z,16.12
2023-12-01T16:32:37.301Z,16.08
2023-12-01T16:35:07.764Z,16.12
2023-12-01T16:37:38.797Z,16.06
2023-12-01T16:40:07.640Z,16.00
2023-12-01T16:42:35.770Z,16.16
2023-12-01T16:45:04.072Z,16.17
2023-12-01T16:47:32.296Z,16.15
2023-12-01T16:50:00.287Z,16.28
2023-12-01T16:52:28.309Z,16.24
2023-12-01T16:54:59.401Z,16.17
2023-12-01T16:57:27.416Z,16.24
2023-12-01T16:59:55.492Z,16.18
2023-12-01T17:02:23.622Z,16.18
2023-12-01T17:04:51.706Z,16.22
2023-12-01T17:07:19.946Z,16.18
2023-12-01T17:09:47.910Z,16.23
2023-12-01T17:12:17.438Z,16.23
2023-12-01T17:14:48.153Z,16.36
2023-12-01T17:17:16.616Z,16.31
2023-12-01T17:19:44.545Z,16.29
2023-12-01T17:22:12.858Z,16.45
2023-12-01T17:24:41.460Z,16.23
2023-12-01T17:27:10.412Z,16.30
2023-12-01T17:29:39.893Z,16.45
2023-12-01T17:32:08.919Z,16.24
2023-12-01T17:34:36.909Z,16.28
2023-12-01T17:37:05.303Z,16.26
2023-12-01T17:39:33.329Z,16.28
2023-12-01T17:42:01.401Z,16.29
2023-12-01T17:44:29.524Z,16.37
2023-12-01T17:47:00.086Z,16.36
2023-12-01T17:49:28.163Z,16.28
2023-12-01T17:51:56.332Z,16.32
2023-12-01T17:54:24.901Z,16.33
2023-12-01T17:56:52.974Z,16.35
2023-12-01T17:59:21.042Z,16.37
2023-12-01T18:01:49.025Z,16.46
2023-12-01T18:04:18.682Z,16.41
2023-12-01T18:06:47.742Z,16.41
2023-12-01T18:09:15.968Z,16.46
2023-12-01T18:11:44.041Z,16.27
2023-12-01T18:14:12.198Z,16.25
2023-12-01T18:16:40.340Z,16.29
2023-12-01T18:19:08.678Z,16.28
2023-12-01T18:21:38.494Z,16.27
2023-12-01T18:24:07.008Z,16.40
2023-12-01T18:26:39.111Z,16.29
2023-12-01T18:29:09.463Z,16.37
2023-12-01T18:31:38.158Z,16.34
2023-12-01T18:34:06.392Z,16.27
2023-12-01T18:36:34.637Z,16.13
2023-12-01T18:39:05.193Z,16.15
2023-12-01T18:41:33.511Z,16.14
2023-12-01T18:44:01.567Z,16.10
2023-12-01T18:46:29.736Z,16.07
2023-12-01T18:48:57.895Z,16.08
2023-12-01T18:51:26.014Z,16.09
2023-12-01T18:53:54.049Z,16.07
2023-12-01T18:56:23.663Z,15.98
2023-12-01T18:58:51.641Z,15.98
2023-12-01T19:01:19.928Z,15.99
2023-12-01T19:03:48.302Z,16.15
2023-12-01T19:06:16.461Z,16.09
2023-12-01T19:08:44.648Z,16.12
2023-12-01T19:11:12.703Z,16.12
2023-12-01T19:13:42.166Z,16.17
2023-12-01T19:16:10.845Z,16.11
2023-12-01T19:18:39.497Z,16.15
2023-12-01T19:21:08.393Z,16.02
2023-12-01T19:23:36.568Z,15.96
2023-12-01T19:26:04.673Z,16.18
2023-12-01T19:28:33.521Z,16.13
2023-12-01T19:31:03.348Z,16.03
2023-12-01T19:33:31.563Z,16.17
2023-12-01T19:35:59.804Z,15.96
2023-12-01T19:38:28.042Z,16.04
2023-12-01T19:40:56.041Z,16.11
2023-12-01T19:43:24.058Z,16.15
2023-12-01T19:45:53.205Z,16.15
2023-12-01T19:48:24.903Z,16.10
2023-12-01T19:50:53.241Z,15.96
2023-12-01T19:53:21.247Z,16.02
2023-12-01T19:55:50.767Z,16.02
2023-12-01T19:58:18.759Z,16.06
2023-12-01T20:00:46.970Z,16.10
2023-12-01T20:03:15.182Z,16.04
2023-12-01T20:05:44.946Z,16.03
2023-12-01T20:08:13.078Z,15.81
2023-12-01T20:10:41.141Z,15.96
2023-12-01T20:13:09.504Z,16.00
2023-12-01T20:15:37.507Z,15.97
2023-12-01T20:18:05.931Z,15.94
2023-12-01T20:20:34.298Z,16.15
2023-12-01T20:23:03.844Z,16.17
2023-12-01T20:25:31.902Z,16.17
2023-12-01T20:27:59.914Z,16.09
2023-12-01T20:30:27.994Z,16.07
2023-12-01T20:32:56.047Z,16.00
2023-12-01T20:35:24.188Z,15.81
2023-12-01T20:37:52.362Z,15.83
2023-12-01T20:40:22.129Z,15.69
2023-12-01T20:42:50.168Z,15.86
2023-12-01T20:45:18.226Z,15.82
2023-12-01T20:47:46.465Z,15.72
2023-12-01T20:50:14.707Z,15.64
2023-12-01T20:52:43.760Z,15.70
2023-12-01T20:55:16.612Z,15.81
2023-12-01T20:57:46.460Z,15.76
2023-12-01T21:00:14.976Z,15.76
2023-12-01T21:02:43.003Z,15.76
2023-12-01T21:05:11.137Z,15.56
2023-12-01T21:07:39.195Z,15.52
2023-12-01T21:10:09.055Z,15.64
2023-12-01T21:12:37.430Z,15.50
2023-12-01T21:15:11.498Z,15.52
2023-12-01T21:17:39.649Z,15.29
2023-12-01T21:20:08.398Z,15.38
2023-12-01T21:22:36.416Z,15.43
2023-12-01T21:25:06.494Z,15.47
2023-12-01T21:27:34.628Z,15.41
2023-12-01T21:30:02.957Z,15.47
2023-12-01T21:32:35.275Z,15.52
2023-12-01T21:35:03.660Z,15.43
2023-12-01T21:37:32.139Z,15.41
2023-12-01T21:40:00.447Z,15.42
2023-12-01T21:42:28.544Z,15.51
2023-12-01T21:44:56.812Z,15.46
2023-12-01T21:47:24.769Z,15.36
2023-12-01T21:49:54.223Z,15.43
2023-12-01T21:52:22.415Z,15.37
2023-12-01T21:54:50.418Z,15.49
2023-12-01T21:57:19.406Z,15.36
2023-12-01T21:59:47.369Z,15.48
2023-12-01T22:02:15.590Z,15.39
2023-12-01T22:04:43.658Z,15.53
2023-12-01T22:07:13.234Z,15.52
2023-12-01T22:09:41.211Z,15.50
2023-12-01T22:12:09.586Z,15.43
2023-12-01T22:14:37.999Z,15.35
2023-12-01T22:17:05.974Z,15.42
2023-12-01T22:19:34.419Z,15.33
2023-12-01T22:22:02.478Z,15.24
2023-12-01T22:24:31.874Z,15.38
2023-12-01T22:27:00.127Z,15.25
2023-12-01T22:29:28.321Z,15.24
2023-12-01T22:31:56.484Z,15.18
2023-12-01T22:34:24.471Z,15.13
2023-12-01T22:36:52.514Z,15.14
2023-12-01T22:39:21.124Z,15.17
2023-12-01T22:41:51.649Z,15.35
2023-12-01T22:44:19.708Z,15.24
2023-12-01T22:46:49.857Z,15.11
2023-12-01T22:49:18.449Z,15.16
2023-12-01T22:51:46.501Z,15.16
2023-12-01T22:54:14.576Z,15.01
2023-12-01T22:56:42.582Z,15.02
2023-12-01T22:59:11.883Z,14.91
2023-12-01T23:01:40.572Z,15.30
2023-12-01T23:04:08.732Z,15.12
2023-12-01T23:06:37.227Z,15.12
2023-12-01T23:09:06.213Z,14.97
2023-12-01T23:11:34.197Z,15.09
2023-12-01T23:14:02.160Z,14.90
2023-12-01T23:16:31.603Z,14.81
2023-12-01T23:18:59.710Z,14.93
2023-12-01T23:21:28.122Z,15.02
2023-12-01T23:23:56.176Z,15.01
2023-12-01T23:26:24.492Z,15.15
2023-12-01T23:28:52.695Z,15.04
2023-12-01T23:31:22.127Z,14.88
2023-12-01T23:33:52.395Z,15.00
2023-12-01T23:36:20.508Z,14.91
2023-12-01T23:38:48.487Z,14.85
2023-12-01T23:41:16.403Z,14.84
2023-12-01T23:43:44.340Z,14.74
2023-12-01T23:46:12.330Z,14.84
2023-12-01T23:48:40.657Z,14.73
2023-12-01T23:51:10.427Z,14.72
2023-12-01T23:53:38.457Z,14.64
2023-12-01T23:56:06.857Z,14.74
2023-12-01T23:58:34.977Z,14.73
